Time;durP1;ratioP1;P1;durP2;ratioP2;P2;SDS_P1;SDS_P2;PMS_P1;PMS_P2;Temp;Humidity;BMP_temperature;BMP_pressure;BME280_temperature;BME280_humidity;BME280_pressure;Samples;Min_cycle;Max_cycle;Signal;HPM_P1;HPM_P2
2023/05/23 00:00:57;;;;;;;7.38;6.55;;;16.10;99.50;;;;;;4993779;28;20034;-82
2023/05/23 00:03:24;;;;;;;7.75;5.82;;;16.10;98.30;;;;;;5011485;28;20100;-81
2023/05/23 00:05:52;;;;;;;5.78;5.22;;;16.10;98.50;;;;;;4992798;28;20045;-82
2023/05/23 00:08:18;;;;;;;8.07;5.18;;;16.00;99.70;;;;;;4984589;28;20040;-81
2023/05/23 00:10:44;;;;;;;10.52;5.50;;;16.00;99.50;;;;;;4976914;28;20027;-81
2023/05/23 00:13:11;;;;;;;7.20;5.25;;;16.10;99.80;;;;;;5005596;28;20391;-81
2023/05/23 00:15:40;;;;;;;6.82;5.53;;;15.90;99.70;;;;;;5004339;28;20041;-81
2023/05/23 00:18:07;;;;;;;7.38;5.28;;;15.90;99.60;;;;;;5005065;28;20188;-81
2023/05/23 00:20:35;;;;;;;4.97;4.47;;;15.90;99.30;;;;;;5000514;28;20126;-81
2023/05/23 00:23:02;;;;;;;6.32;4.90;;;15.90;99.90;;;;;;4996157;28;20042;-81
2023/05/23 00:25:32;;;;;;;6.43;4.88;;;16.00;99.50;;;;;;4992632;28;20366;-81
2023/05/23 00:27:59;;;;;;;5.95;4.05;;;16.10;99.90;;;;;;5005151;28;20129;-81
2023/05/23 00:30:25;;;;;;;5.60;4.18;;;16.10;99.80;;;;;;4991998;28;20041;-81
2023/05/23 00:32:53;;;;;;;6.72;4.57;;;15.90;99.90;;;;;;4995127;28;20046;-81
2023/05/23 00:35:19;;;;;;;4.15;3.75;;;16.00;99.90;;;;;;5003989;28;20568;-79
2023/05/23 00:37:45;;;;;;;7.18;4.40;;;16.10;99.90;;;;;;4989781;28;20049;-79
2023/05/23 00:40:10;;;;;;;4.28;3.88;;;16.00;99.90;;;;;;4995932;28;20061;-80
2023/05/23 00:42:36;;;;;;;7.45;4.75;;;16.10;99.90;;;;;;5016067;28;20044;-80
2023/05/23 00:45:02;;;;;;;4.00;3.65;;;16.20;99.90;;;;;;5013460;28;20037;-80
2023/05/23 00:47:28;;;;;;;7.60;5.35;;;16.20;99.10;;;;;;4992212;28;20037;-80
2023/05/23 00:49:53;;;;;;;7.50;4.65;;;16.10;99.70;;;;;;4986257;28;20026;-80
2023/05/23 00:52:19;;;;;;;6.25;4.35;;;16.10;99.60;;;;;;4998683;28;20104;-80
2023/05/23 00:54:44;;;;;;;5.88;4.30;;;16.00;99.90;;;;;;4993182;28;20030;-80
2023/05/23 00:57:10;;;;;;;4.45;3.55;;;16.20;99.90;;;;;;5008944;28;20034;-79
2023/05/23 00:59:36;;;;;;;4.50;3.65;;;16.00;99.90;;;;;;4992005;28;20100;-80
2023/05/23 01:02:01;;;;;;;4.70;3.72;;;16.00;99.90;;;;;;4995515;28;20054;-80
2023/05/23 01:04:27;;;;;;;8.90;4.40;;;16.10;99.70;;;;;;4977478;28;20030;-79
2023/05/23 01:06:54;;;;;;;5.38;4.85;;;16.00;99.90;;;;;;5012783;28;20100;-80
2023/05/23 01:09:20;;;;;;;5.55;4.75;;;16.00;99.70;;;;;;4995845;28;20102;-79
2023/05/23 01:12:01;;;;;;;9.15;4.50;;;15.90;99.90;;;;;;5011317;28;20108;-79
2023/05/23 01:14:36;;;;;;;6.35;5.22;;;16.10;99.90;;;;;;5003118;28;20050;-79
2023/05/23 01:17:10;;;;;;;7.88;4.95;;;16.00;99.90;;;;;;4991890;28;20494;-79
2023/05/23 01:19:47;;;;;;;7.85;5.47;;;16.00;99.90;;;;;;4985682;28;20113;-79
2023/05/23 01:22:27;;;;;;;5.43;4.70;;;16.00;99.90;;;;;;5017309;28;20532;-79
2023/05/23 01:25:00;;;;;;;6.95;4.43;;;15.90;99.90;;;;;;5008807;28;20030;-79
2023/05/23 01:27:47;;;;;;;6.65;4.78;;;16.10;99.90;;;;;;5004189;28;20405;-80
2023/05/23 01:30:13;;;;;;;4.15;3.75;;;16.00;99.90;;;;;;4985743;28;20512;-79
2023/05/23 01:32:39;;;;;;;6.72;4.18;;;16.00;99.90;;;;;;5014766;28;20056;-80
2023/05/23 01:35:05;;;;;;;6.30;4.47;;;16.10;99.90;;;;;;5016237;28;20044;-81
2023/05/23 01:37:30;;;;;;;4.97;4.10;;;16.20;99.50;;;;;;4994065;28;20034;-81
2023/05/23 01:39:56;;;;;;;3.92;3.58;;;16.10;99.60;;;;;;5011702;28;20037;-81
2023/05/23 01:42:21;;;;;;;6.20;4.10;;;16.10;99.90;;;;;;4996629;28;20027;-81
2023/05/23 01:44:47;;;;;;;4.28;3.72;;;16.10;99.90;;;;;;4991138;28;20040;-80
2023/05/23 01:47:12;;;;;;;5.38;4.07;;;16.10;99.70;;;;;;4995111;28;20038;-81
2023/05/23 01:49:38;;;;;;;5.63;4.50;;;16.20;99.70;;;;;;4994351;28;20021;-81
2023/05/23 01:52:04;;;;;;;4.93;3.92;;;16.10;99.80;;;;;;5010307;28;20045;-81
2023/05/23 01:54:31;;;;;;;5.22;4.40;;;16.00;99.90;;;;;;5009104;28;20486;-81
2023/05/23 01:56:56;;;;;;;9.88;3.85;;;15.90;99.80;;;;;;5007072;28;20379;-81
2023/05/23 01:59:22;;;;;;;3.67;3.33;;;16.00;99.90;;;;;;4977249;28;20077;-81
2023/05/23 02:01:48;;;;;;;7.90;4.55;;;16.00;99.90;;;;;;4984832;28;20093;-81
2023/05/23 02:04:14;;;;;;;4.07;3.67;;;16.00;99.90;;;;;;4985287;28;20026;-81
2023/05/23 02:06:40;;;;;;;7.32;4.95;;;16.00;99.90;;;;;;4965466;28;21086;-81
2023/05/23 02:09:07;;;;;;;7.65;4.93;;;16.00;99.90;;;;;;5000330;28;20040;-81
2023/05/23 02:11:32;;;;;;;5.10;4.60;;;15.90;99.90;;;;;;4999041;28;20524;-80
2023/05/23 02:13:58;;;;;;;7.53;6.05;;;16.00;99.90;;;;;;5011755;28;20041;-80
2023/05/23 02:16:25;;;;;;;6.93;5.50;;;16.00;99.90;;;;;;4993461;28;20082;-81
2023/05/23 02:18:52;;;;;;;7.55;5.72;;;16.00;99.90;;;;;;5007546;28;20120;-81
2023/05/23 02:21:17;;;;;;;8.68;5.95;;;16.00;99.90;;;;;;4997442;28;20072;-81
2023/05/23 02:23:43;;;;;;;6.20;4.70;;;16.00;99.90;;;;;;5010643;28;20486;-81
2023/05/23 02:26:08;;;;;;;6.70;5.00;;;16.00;99.90;;;;;;5005459;28;20398;-82
2023/05/23 02:28:34;;;;;;;7.75;6.20;;;16.10;99.90;;;;;;4991585;28;20056;-81
2023/05/23 02:31:00;;;;;;;9.68;6.75;;;16.00;99.90;;;;;;5026209;28;20041;-80
2023/05/23 02:33:26;;;;;;;7.40;5.68;;;15.90;99.90;;;;;;4987245;28;20026;-81
2023/05/23 02:35:51;;;;;;;7.63;5.43;;;16.00;99.90;;;;;;4990373;28;20038;-80
2023/05/23 02:38:19;;;;;;;9.13;5.95;;;15.90;99.90;;;;;;4991115;28;20103;-80
2023/05/23 02:40:44;;;;;;;7.78;5.47;;;16.00;99.90;;;;;;4997586;28;20039;-80
2023/05/23 02:43:10;;;;;;;8.27;5.20;;;16.00;99.90;;;;;;4986273;28;20026;-81
2023/05/23 02:45:36;;;;;;;9.98;5.30;;;16.00;99.90;;;;;;5003226;28;20038;-81
2023/05/23 02:48:01;;;;;;;7.05;5.57;;;16.10;99.90;;;;;;5006288;28;20393;-81
2023/05/23 02:50:27;;;;;;;10.25;5.72;;;16.10;99.90;;;;;;5006007;28;20448;-80
2023/05/23 02:52:52;;;;;;;33.72;7.18;;;16.00;99.90;;;;;;4991320;28;20065;-81
2023/05/23 02:55:21;;;;;;;8.57;5.78;;;16.00;99.90;;;;;;4999956;28;20045;-81
2023/05/23 02:57:47;;;;;;;7.20;6.10;;;15.90;99.90;;;;;;4998252;28;20030;-80
2023/05/23 03:00:19;;;;;;;8.65;4.95;;;16.00;99.90;;;;;;4997420;28;20041;-81
2023/05/23 03:02:44;;;;;;;10.23;6.07;;;15.90;99.90;;;;;;5001084;28;20029;-81
2023/05/23 03:05:10;;;;;;;4.63;3.80;;;16.10;99.90;;;;;;4990771;28;20030;-81
2023/05/23 03:07:35;;;;;;;9.85;5.40;;;16.00;99.90;;;;;;4999220;28;21070;-80
2023/05/23 03:10:01;;;;;;;7.32;4.70;;;16.00;99.90;;;;;;4997889;28;20121;-81
2023/05/23 03:12:27;;;;;;;11.20;5.38;;;15.80;99.90;;;;;;4997618;28;20589;-81
2023/05/23 03:14:53;;;;;;;11.18;5.25;;;15.90;99.90;;;;;;5013276;28;20086;-81
2023/05/23 03:17:19;;;;;;;7.13;5.00;;;15.80;99.90;;;;;;5013706;28;20025;-81
2023/05/23 03:19:44;;;;;;;7.88;5.10;;;15.70;99.90;;;;;;4997742;28;20469;-81
2023/05/23 03:22:10;;;;;;;7.18;4.82;;;15.70;99.90;;;;;;5012806;28;20289;-81
2023/05/23 03:24:35;;;;;;;8.07;4.97;;;15.70;99.90;;;;;;4994349;28;21179;-80
2023/05/23 03:27:01;;;;;;;8.38;4.90;;;15.70;99.90;;;;;;4994678;28;20498;-81
2023/05/23 03:29:27;;;;;;;4.88;4.20;;;15.80;99.90;;;;;;5008800;28;20030;-81
2023/05/23 03:31:53;;;;;;;10.98;4.63;;;15.70;99.90;;;;;;5012718;28;20022;-80
2023/05/23 03:34:18;;;;;;;7.38;5.22;;;15.70;99.90;;;;;;4997773;28;20027;-80
2023/05/23 03:36:44;;;;;;;13.88;5.03;;;15.60;99.90;;;;;;4986732;28;20039;-81
2023/05/23 03:39:10;;;;;;;8.32;5.47;;;15.70;99.90;;;;;;4999699;28;20097;-81
2023/05/23 03:41:35;;;;;;;6.20;3.75;;;15.70;99.90;;;;;;5003763;28;20026;-81
2023/05/23 03:44:01;;;;;;;10.73;6.40;;;15.70;99.90;;;;;;5012929;28;20820;-80
2023/05/23 03:46:26;;;;;;;5.57;4.45;;;15.50;99.90;;;;;;5014074;28;20030;-81
2023/05/23 03:48:52;;;;;;;9.60;5.05;;;15.60;99.90;;;;;;5014647;28;20071;-80
2023/05/23 03:51:17;;;;;;;10.52;4.82;;;15.60;99.90;;;;;;5014886;28;20405;-80
2023/05/23 03:53:43;;;;;;;10.63;5.80;;;15.60;99.90;;;;;;5012072;28;20467;-81
2023/05/23 03:56:08;;;;;;;12.13;5.85;;;15.40;99.90;;;;;;4988642;28;20290;-80
2023/05/23 03:58:34;;;;;;;11.70;6.28;;;15.50;99.90;;;;;;4983997;28;20480;-80
2023/05/23 04:01:00;;;;;;;9.32;6.03;;;15.50;99.90;;;;;;5002877;28;20453;-80
2023/05/23 04:03:26;;;;;;;9.10;6.10;;;15.40;99.90;;;;;;5009377;28;20061;-81
2023/05/23 04:05:51;;;;;;;10.65;7.72;;;15.40;99.90;;;;;;4994142;28;20057;-81
2023/05/23 04:08:20;;;;;;;13.50;6.88;;;15.30;99.90;;;;;;4978652;28;20049;-81
2023/05/23 04:10:46;;;;;;;9.80;5.20;;;15.20;99.90;;;;;;4989100;28;20052;-80
2023/05/23 04:13:12;;;;;;;9.00;6.57;;;15.40;99.90;;;;;;4997470;28;20482;-81
2023/05/23 04:15:38;;;;;;;14.25;7.07;;;15.40;99.90;;;;;;4994944;28;20059;-80
2023/05/23 04:18:04;;;;;;;13.35;6.93;;;15.30;99.90;;;;;;5025520;28;20026;-81
2023/05/23 04:20:29;;;;;;;9.07;6.18;;;15.20;99.90;;;;;;4995664;28;20566;-81
2023/05/23 04:22:55;;;;;;;13.20;7.43;;;15.30;99.90;;;;;;5012446;28;20038;-80
2023/05/23 04:25:20;;;;;;;13.27;6.55;;;15.20;99.90;;;;;;5013524;28;20128;-81
2023/05/23 04:27:47;;;;;;;10.93;6.50;;;15.20;99.90;;;;;;5010587;28;20080;-81
2023/05/23 04:30:12;;;;;;;9.82;6.35;;;15.20;99.90;;;;;;5012182;28;20050;-80
2023/05/23 04:32:39;;;;;;;10.07;5.60;;;15.10;99.90;;;;;;5001872;28;20088;-80
2023/05/23 04:35:04;;;;;;;10.98;7.00;;;15.20;99.90;;;;;;5012522;28;20030;-80
2023/05/23 04:37:31;;;;;;;12.23;7.45;;;15.20;99.90;;;;;;4991907;28;20114;-80
2023/05/23 04:39:58;;;;;;;9.65;5.50;;;15.30;99.90;;;;;;5010520;28;20033;-80
2023/05/23 04:42:24;;;;;;;12.20;6.55;;;15.30;99.90;;;;;;4969913;28;20441;-80
2023/05/23 04:44:50;;;;;;;13.75;7.60;;;15.10;99.90;;;;;;4994024;28;20528;-80
2023/05/23 04:47:16;;;;;;;14.75;8.05;;;15.10;99.90;;;;;;5005577;28;20026;-80
2023/05/23 04:49:42;;;;;;;12.20;6.95;;;15.10;99.90;;;;;;4993130;28;20029;-80
2023/05/23 04:52:07;;;;;;;12.27;6.40;;;15.30;99.90;;;;;;4994820;28;20046;-81
2023/05/23 04:54:33;;;;;;;11.00;8.30;;;15.30;99.90;;;;;;5010455;28;20058;-81
2023/05/23 04:56:59;;;;;;;13.57;8.13;;;15.30;99.90;;;;;;4984019;28;20478;-81
2023/05/23 04:59:25;;;;;;;14.48;7.40;;;15.20;99.90;;;;;;5010107;28;20026;-80
2023/05/23 05:01:51;;;;;;;16.27;8.13;;;15.30;99.90;;;;;;4993659;28;20022;-82
2023/05/23 05:04:16;;;;;;;13.45;7.20;;;15.30;99.90;;;;;;5005263;28;20026;-82
2023/05/23 05:06:42;;;;;;;9.02;6.40;;;15.40;99.90;;;;;;5015332;28;20157;-81
2023/05/23 05:09:07;;;;;;;17.38;8.02;;;15.40;99.90;;;;;;5004892;28;20043;-81
2023/05/23 05:11:33;;;;;;;9.80;7.20;;;15.40;99.90;;;;;;5001605;28;20026;-80
2023/05/23 05:13:58;;;;;;;16.95;9.30;;;15.40;99.90;;;;;;4974654;28;20039;-80
2023/05/23 05:16:24;;;;;;;15.02;8.60;;;15.40;99.90;;;;;;4991802;28;20037;-81
2023/05/23 05:18:50;;;;;;;13.80;9.27;;;15.30;99.90;;;;;;5010396;28;20026;-78
2023/05/23 05:21:15;;;;;;;12.88;7.57;;;15.50;99.90;;;;;;5015550;28;20088;-81
2023/05/23 05:23:42;;;;;;;13.10;8.48;;;15.50;99.90;;;;;;5007494;28;20033;-81
2023/05/23 05:26:08;;;;;;;15.43;8.82;;;15.50;99.90;;;;;;4977740;28;20035;-81
2023/05/23 05:28:33;;;;;;;13.27;8.05;;;15.40;99.90;;;;;;4972379;28;20656;-81
2023/05/23 05:31:03;;;;;;;13.60;8.63;;;15.40;99.90;;;;;;4977518;28;20034;-80
2023/05/23 05:33:34;;;;;;;11.98;7.93;;;15.40;99.90;;;;;;4989333;28;20153;-79
2023/05/23 05:36:03;;;;;;;15.70;9.48;;;15.40;99.90;;;;;;4994289;28;20065;-80
2023/05/23 05:38:29;;;;;;;11.73;8.30;;;15.50;99.90;;;;;;4992501;28;20061;-80
2023/05/23 05:40:55;;;;;;;13.23;7.35;;;15.30;99.90;;;;;;5012820;28;20434;-79
2023/05/23 05:43:21;;;;;;;16.13;10.40;;;15.30;99.90;;;;;;4996206;28;20079;-80
2023/05/23 05:45:46;;;;;;;11.07;8.57;;;15.30;99.90;;;;;;5008211;28;20038;-80
2023/05/23 05:48:12;;;;;;;13.35;8.52;;;15.40;99.90;;;;;;5023545;28;20036;-81
2023/05/23 05:50:38;;;;;;;15.43;9.00;;;15.50;99.90;;;;;;5011988;28;20041;-81
2023/05/23 05:53:03;;;;;;;16.48;8.80;;;15.40;99.90;;;;;;4969809;28;20030;-80
2023/05/23 05:55:29;;;;;;;13.25;8.88;;;15.40;99.90;;;;;;4977747;28;20112;-80
2023/05/23 05:57:54;;;;;;;16.23;8.90;;;15.60;99.90;;;;;;4998096;28;20058;-80
2023/05/23 06:00:20;;;;;;;17.70;9.82;;;15.50;99.90;;;;;;4980285;28;20034;-80
2023/05/23 06:02:46;;;;;;;18.92;10.25;;;15.40;99.90;;;;;;5003991;28;20030;-80
2023/05/23 06:05:12;;;;;;;16.80;9.57;;;15.40;99.90;;;;;;5013499;28;20045;-80
2023/05/23 06:07:38;;;;;;;13.63;9.23;;;15.40;99.90;;;;;;5010094;28;20064;-80
2023/05/23 06:10:04;;;;;;;14.63;9.13;;;15.30;99.90;;;;;;5012715;28;20053;-80
2023/05/23 06:12:29;;;;;;;12.27;8.95;;;15.40;99.90;;;;;;5012527;28;20084;-80
2023/05/23 06:14:55;;;;;;;18.08;10.88;;;15.50;99.90;;;;;;5012416;28;20048;-80
2023/05/23 06:17:23;;;;;;;15.52;9.88;;;15.40;99.90;;;;;;4990690;28;20115;-80
2023/05/23 06:19:49;;;;;;;13.88;10.63;;;15.40;99.90;;;;;;4989230;28;20079;-80
2023/05/23 06:22:14;;;;;;;14.27;10.20;;;15.30;99.90;;;;;;5007481;28;20492;-80
2023/05/23 06:24:40;;;;;;;14.88;9.77;;;15.30;99.90;;;;;;5009136;28;20713;-80
2023/05/23 06:27:05;;;;;;;19.35;9.98;;;15.40;99.90;;;;;;5001944;28;20034;-80
2023/05/23 06:29:31;;;;;;;17.02;11.40;;;15.40;99.90;;;;;;5007823;28;20037;-80
2023/05/23 06:31:57;;;;;;;14.57;8.75;;;15.40;99.90;;;;;;5007398;28;20030;-80
2023/05/23 06:34:22;;;;;;;13.73;7.90;;;15.30;99.90;;;;;;4995945;28;20036;-80
2023/05/23 06:36:48;;;;;;;12.65;8.48;;;15.50;99.90;;;;;;5011241;28;20509;-80
2023/05/23 06:39:14;;;;;;;13.30;9.52;;;15.40;99.90;;;;;;5007338;28;22017;-80
2023/05/23 06:41:40;;;;;;;11.65;8.57;;;15.50;99.90;;;;;;5005005;28;20117;-79
2023/05/23 06:44:05;;;;;;;12.38;9.38;;;15.40;99.90;;;;;;5001674;28;20075;-80
2023/05/23 06:46:31;;;;;;;13.38;8.85;;;15.40;99.90;;;;;;4988973;28;20034;-79
2023/05/23 06:48:57;;;;;;;12.00;8.63;;;15.40;99.90;;;;;;4995092;28;20107;-79
2023/05/23 06:51:22;;;;;;;14.38;8.45;;;15.40;99.90;;;;;;5004916;28;20527;-79
2023/05/23 06:53:48;;;;;;;11.45;8.82;;;15.50;99.90;;;;;;5015759;28;20041;-80
2023/05/23 06:56:14;;;;;;;13.20;8.77;;;15.50;99.90;;;;;;5013618;28;20057;-80
2023/05/23 06:58:40;;;;;;;15.95;8.45;;;15.40;99.90;;;;;;4991608;28;20033;-79
2023/05/23 07:01:05;;;;;;;9.95;7.20;;;15.40;99.90;;;;;;4993135;28;20041;-79
2023/05/23 07:03:31;;;;;;;12.82;8.13;;;15.50;99.90;;;;;;5008937;28;20449;-80
2023/05/23 07:05:57;;;;;;;10.48;7.07;;;15.40;99.90;;;;;;4992923;28;20038;-79
2023/05/23 07:08:22;;;;;;;11.45;7.97;;;15.40;99.90;;;;;;4992410;28;20033;-79
2023/05/23 07:10:48;;;;;;;13.65;11.35;;;15.40;99.90;;;;;;5014527;28;20592;-80
2023/05/23 07:13:13;;;;;;;11.38;9.70;;;15.40;99.90;;;;;;4993937;28;21111;-79
2023/05/23 07:15:39;;;;;;;10.98;9.55;;;15.40;99.90;;;;;;5010198;28;20042;-79
2023/05/23 07:18:04;;;;;;;10.95;8.95;;;15.40;99.90;;;;;;4994951;28;20451;-80
2023/05/23 07:20:32;;;;;;;11.30;9.30;;;15.50;99.90;;;;;;4997513;28;20068;-79
2023/05/23 07:22:57;;;;;;;14.27;8.95;;;15.40;99.90;;;;;;4973988;28;20043;-79
2023/05/23 07:25:23;;;;;;;17.35;9.63;;;15.50;99.90;;;;;;4973073;28;20034;-80
2023/05/23 07:27:49;;;;;;;17.10;8.85;;;15.50;99.90;;;;;;4987896;28;20026;-79
2023/05/23 07:30:15;;;;;;;14.63;8.38;;;15.50;99.90;;;;;;4971612;28;20038;-81
2023/05/23 07:32:41;;;;;;;17.27;11.65;;;15.50;99.90;;;;;;5007501;28;20084;-81
2023/05/23 07:35:07;;;;;;;18.42;9.48;;;15.50;99.90;;;;;;5014756;28;20394;-80
2023/05/23 07:37:33;;;;;;;15.30;8.98;;;15.60;99.90;;;;;;5014867;28;20554;-80
2023/05/23 07:40:00;;;;;;;12.20;7.85;;;15.60;99.90;;;;;;5016817;28;20089;-79
2023/05/23 07:42:25;;;;;;;14.65;8.05;;;15.70;99.90;;;;;;5016573;28;20504;-80
2023/05/23 07:44:51;;;;;;;15.40;8.02;;;15.70;99.90;;;;;;4995520;28;20026;-79
2023/05/23 07:47:16;;;;;;;15.40;7.53;;;15.60;99.90;;;;;;5009047;28;20112;-81
2023/05/23 07:49:42;;;;;;;14.60;7.35;;;15.80;99.90;;;;;;5002290;28;20030;-80
2023/05/23 07:52:07;;;;;;;16.63;8.20;;;15.70;99.90;;;;;;4987544;28;20753;-80
2023/05/23 07:54:33;;;;;;;11.98;6.97;;;15.80;99.90;;;;;;5002413;28;20033;-79
2023/05/23 07:56:59;;;;;;;14.27;7.60;;;15.90;99.90;;;;;;4990172;28;20519;-80
2023/05/23 07:59:25;;;;;;;14.98;7.57;;;16.00;99.90;;;;;;5007188;28;20485;-81
2023/05/23 08:01:51;;;;;;;13.27;7.82;;;16.10;99.90;;;;;;4991382;28;20041;-82
2023/05/23 08:04:17;;;;;;;15.77;7.78;;;16.10;99.90;;;;;;4996834;28;20039;-81
2023/05/23 08:06:46;;;;;;;16.48;8.70;;;16.20;99.90;;;;;;4992191;28;20116;-82
2023/05/23 08:09:11;;;;;;;21.25;9.82;;;16.30;99.90;;;;;;5003816;28;20030;-81
2023/05/23 08:11:37;;;;;;;12.43;7.03;;;16.40;99.90;;;;;;4972447;28;20547;-81
2023/05/23 08:14:03;;;;;;;13.43;8.10;;;16.40;99.90;;;;;;5026259;28;20042;-81
2023/05/23 08:16:28;;;;;;;16.38;7.20;;;16.30;99.90;;;;;;4995659;28;20041;-81
2023/05/23 08:18:54;;;;;;;13.57;8.40;;;16.30;99.90;;;;;;5006851;28;20022;-81
2023/05/23 08:21:20;;;;;;;17.65;8.25;;;16.30;99.90;;;;;;5016728;28;20029;-82
2023/05/23 08:23:45;;;;;;;21.70;11.32;;;16.30;99.90;;;;;;4997124;28;20037;-81
2023/05/23 08:26:11;;;;;;;19.10;12.43;;;16.30;99.90;;;;;;5027084;28;20067;-81
2023/05/23 08:28:36;;;;;;;19.73;11.25;;;16.20;99.90;;;;;;5013488;28;20036;-82
2023/05/23 08:31:02;;;;;;;19.23;11.43;;;16.20;99.90;;;;;;4997276;28;20029;-82
2023/05/23 08:33:27;;;;;;;20.42;11.95;;;16.20;99.90;;;;;;5012025;28;20030;-82
2023/05/23 08:35:53;;;;;;;22.70;12.85;;;16.30;99.90;;;;;;5012136;28;20046;-79
2023/05/23 08:38:20;;;;;;;19.67;11.85;;;16.40;99.90;;;;;;5011890;28;20108;-81
2023/05/23 08:40:49;;;;;;;18.48;11.00;;;16.40;99.90;;;;;;5013291;28;20084;-81
2023/05/23 08:43:15;;;;;;;17.50;11.38;;;16.40;99.90;;;;;;5016008;28;20493;-80
2023/05/23 08:45:41;;;;;;;16.42;12.02;;;16.50;99.90;;;;;;4998015;28;20037;-80
2023/05/23 08:48:08;;;;;;;16.60;11.02;;;16.40;99.90;;;;;;5031946;28;20034;-80
2023/05/23 08:50:34;;;;;;;18.40;9.13;;;16.60;99.90;;;;;;5013635;28;20025;-80
2023/05/23 08:53:00;;;;;;;14.80;8.45;;;16.60;99.90;;;;;;4992646;28;20030;-79
2023/05/23 08:55:26;;;;;;;14.43;7.60;;;16.60;99.90;;;;;;4992725;28;20204;-80
2023/05/23 08:57:56;;;;;;;13.70;7.88;;;16.50;99.90;;;;;;5009532;28;20053;-80
2023/05/23 09:00:25;;;;;;;15.82;6.57;;;16.50;99.90;;;;;;5007205;28;20045;-80
2023/05/23 09:02:52;;;;;;;13.82;6.20;;;16.40;99.90;;;;;;4994395;28;20124;-81
2023/05/23 09:05:18;;;;;;;20.20;9.20;;;16.40;99.90;;;;;;4994176;28;20052;-80
2023/05/23 09:07:46;;;;;;;15.45;8.45;;;16.30;99.90;;;;;;5006993;28;20026;-81
2023/05/23 09:10:13;;;;;;;15.20;7.00;;;16.30;99.90;;;;;;4989026;28;20049;-80
2023/05/23 09:12:38;;;;;;;14.52;9.70;;;16.30;99.90;;;;;;5013459;28;20033;-80
2023/05/23 09:15:05;;;;;;;17.63;8.63;;;16.30;99.90;;;;;;5009255;28;20624;-80
2023/05/23 09:17:32;;;;;;;16.90;8.35;;;16.30;99.90;;;;;;5002352;28;20116;-81
2023/05/23 09:19:58;;;;;;;18.58;8.88;;;16.40;99.90;;;;;;5015253;28;20033;-80
2023/05/23 09:22:26;;;;;;;12.80;8.30;;;16.20;99.90;;;;;;4982088;28;20084;-81
2023/05/23 09:24:53;;;;;;;18.60;9.88;;;16.20;99.90;;;;;;5017575;28;20068;-80
2023/05/23 09:27:19;;;;;;;21.23;9.35;;;16.10;99.90;;;;;;4994779;28;20485;-82
2023/05/23 09:29:46;;;;;;;15.35;8.43;;;15.90;99.90;;;;;;4987799;28;20026;-82
2023/05/23 09:32:15;;;;;;;24.92;8.73;;;16.00;99.90;;;;;;4986850;28;20069;-82
2023/05/23 09:35:04;;;;;;;22.10;8.27;;;15.90;99.90;;;;;;4987859;28;20034;-82
2023/05/23 09:37:42;;;;;;;18.85;8.88;;;15.90;99.90;;;;;;4980784;28;20408;-81
2023/05/23 09:40:14;;;;;;;19.25;10.75;;;15.90;99.90;;;;;;4981496;28;20161;-80
2023/05/23 09:42:46;;;;;;;11.93;7.10;;;15.80;99.90;;;;;;4985803;28;20068;-81
2023/05/23 09:45:12;;;;;;;14.68;7.93;;;15.80;99.90;;;;;;4999105;28;20029;-80
2023/05/23 09:47:38;;;;;;;20.67;8.15;;;16.00;99.90;;;;;;4989407;28;20386;-82
2023/05/23 09:50:04;;;;;;;12.75;7.05;;;16.00;99.90;;;;;;5004420;28;20034;-83
2023/05/23 09:52:37;;;;;;;15.77;9.15;;;15.80;99.90;;;;;;4993104;28;20058;-83
2023/05/23 09:55:02;;;;;;;22.00;7.68;;;16.00;99.90;;;;;;4961787;28;20066;-82
2023/05/23 09:57:28;;;;;;;13.13;7.13;;;16.00;99.90;;;;;;4988229;28;20049;-82
2023/05/23 09:59:54;;;;;;;14.25;6.97;;;16.00;99.90;;;;;;4977936;28;20030;-83
2023/05/23 10:02:43;;;;;;;11.98;6.95;;;16.00;99.90;;;;;;4988670;28;20022;-82
2023/05/23 10:05:08;;;;;;;14.35;6.60;;;16.20;99.90;;;;;;5000381;28;20112;-82
2023/05/23 10:07:34;;;;;;;12.98;6.95;;;16.30;99.90;;;;;;4993595;28;20114;-82
2023/05/23 10:10:02;;;;;;;15.80;6.80;;;16.50;99.90;;;;;;4997071;28;20042;-82
2023/05/23 10:12:47;;;;;;;11.60;5.88;;;16.60;99.90;;;;;;4995668;28;20490;-82
2023/05/23 10:15:13;;;;;;;18.80;9.40;;;16.60;99.90;;;;;;5018097;28;20045;-82
2023/05/23 10:17:52;;;;;;;19.45;8.27;;;16.40;99.90;;;;;;4992046;28;20040;-81
2023/05/23 10:20:19;;;;;;;14.20;8.27;;;16.30;99.90;;;;;;5006566;28;20038;-83
2023/05/23 10:22:44;;;;;;;15.35;6.45;;;16.40;99.90;;;;;;5006960;28;20042;-83
2023/05/23 10:25:10;;;;;;;16.70;7.45;;;16.40;99.90;;;;;;4995224;28;20061;-82
2023/05/23 10:27:37;;;;;;;15.25;7.20;;;16.30;99.90;;;;;;5005174;28;20042;-82
2023/05/23 10:30:03;;;;;;;11.95;5.85;;;16.40;99.60;;;;;;5009361;28;20062;-83
2023/05/23 10:32:28;;;;;;;16.92;6.18;;;16.40;99.90;;;;;;5007380;28;20038;-81
2023/05/23 10:35:31;;;;;;;14.18;6.57;;;16.60;99.10;;;;;;4989428;28;20034;-82
2023/05/23 10:38:14;;;;;;;11.57;5.47;;;16.60;98.60;;;;;;4999771;28;20073;-82
2023/05/23 10:40:50;;;;;;;11.60;5.70;;;16.60;98.60;;;;;;5030019;28;20025;-82
2023/05/23 10:43:52;;;;;;;9.52;5.03;;;16.70;97.80;;;;;;4994515;28;20520;-83
2023/05/23 10:46:21;;;;;;;11.23;5.50;;;16.70;97.30;;;;;;5010931;28;20046;-83
2023/05/23 10:48:46;;;;;;;9.25;4.88;;;16.80;97.20;;;;;;5012339;28;20480;-83
2023/05/23 10:51:13;;;;;;;12.80;6.32;;;17.00;97.50;;;;;;4996788;28;20034;-83
2023/05/23 10:53:40;;;;;;;10.77;5.53;;;17.20;96.50;;;;;;5014463;28;20470;-83
2023/05/23 10:56:07;;;;;;;9.43;4.85;;;17.50;97.20;;;;;;5006344;28;20054;-82
2023/05/23 10:58:33;;;;;;;14.43;5.63;;;17.90;97.40;;;;;;5009196;28;20425;-81
2023/05/23 11:01:01;;;;;;;12.10;5.85;;;18.30;96.30;;;;;;5005153;28;20049;-81
2023/05/23 11:03:32;;;;;;;12.55;5.05;;;18.50;96.10;;;;;;5011555;28;20117;-81
2023/05/23 11:05:58;;;;;;;10.25;5.25;;;18.70;96.00;;;;;;5008731;28;20701;-81
2023/05/23 11:08:24;;;;;;;11.98;6.05;;;18.80;95.00;;;;;;4994177;28;20060;-82
2023/05/23 11:10:59;;;;;;;9.32;6.13;;;19.00;93.90;;;;;;4294680;28;9999934;-82
2023/05/23 11:13:52;;;;;;;11.25;6.05;;;19.10;93.70;;;;;;4992663;28;20727;-80
2023/05/23 11:16:31;;;;;;;11.80;6.10;;;19.10;92.70;;;;;;5001649;28;20034;-80
2023/05/23 11:19:18;;;;;;;15.40;6.15;;;19.10;92.10;;;;;;5004115;28;20082;-80
2023/05/23 11:21:54;;;;;;;10.10;5.22;;;19.00;91.60;;;;;;4998881;28;20091;-81
2023/05/23 11:24:20;;;;;;;10.50;4.57;;;19.10;90.80;;;;;;4976080;28;20039;-82
2023/05/23 11:26:59;;;;;;;9.32;4.35;;;19.10;91.10;;;;;;4989701;28;20391;-83
2023/05/23 11:29:28;;;;;;;7.18;4.22;;;19.20;90.90;;;;;;4985754;28;20030;-83
2023/05/23 11:31:57;;;;;;;10.02;4.13;;;19.20;91.20;;;;;;4996992;28;20030;-83
2023/05/23 11:34:25;;;;;;;9.77;4.25;;;19.30;91.80;;;;;;5009719;28;20065;-83
2023/05/23 11:36:53;;;;;;;10.75;4.55;;;19.30;91.10;;;;;;4997706;28;20068;-83
2023/05/23 11:39:20;;;;;;;10.20;4.15;;;19.40;91.90;;;;;;4987584;28;20057;-83
2023/05/23 11:42:00;;;;;;;10.48;4.47;;;19.60;92.10;;;;;;4989423;28;20084;-83
2023/05/23 11:44:26;;;;;;;12.15;4.75;;;19.50;91.60;;;;;;5000483;28;20137;-83
2023/05/23 11:47:02;;;;;;;19.33;6.03;;;19.70;92.10;;;;;;5004907;28;20112;-82
2023/05/23 11:49:33;;;;;;;7.05;3.95;;;19.70;90.70;;;;;;5004967;28;20042;-82
2023/05/23 11:52:00;;;;;;;10.75;4.68;;;19.60;91.30;;;;;;4986856;28;20089;-82
2023/05/23 11:54:27;;;;;;;11.95;5.03;;;19.60;91.40;;;;;;4983004;28;20074;-82
2023/05/23 11:56:53;;;;;;;7.82;4.35;;;19.50;90.60;;;;;;5004458;28;20494;-82
2023/05/23 11:59:20;;;;;;;8.70;3.53;;;19.40;89.20;;;;;;4998734;28;20034;-82
2023/05/23 12:01:47;;;;;;;11.25;3.97;;;19.20;89.30;;;;;;4992689;28;20033;-82
2023/05/23 12:04:13;;;;;;;11.48;4.05;;;19.10;89.50;;;;;;5015867;28;20482;-83
2023/05/23 12:06:40;;;;;;;11.73;4.32;;;19.10;90.40;;;;;;4993708;28;20116;-82
2023/05/23 12:09:06;;;;;;;8.05;3.55;;;19.40;89.80;;;;;;4998077;28;20064;-83
2023/05/23 12:11:32;;;;;;;10.05;3.45;;;19.70;88.30;;;;;;5002089;28;20125;-82
2023/05/23 12:14:00;;;;;;;13.40;4.28;;;19.80;88.70;;;;;;5003695;28;20977;-83
2023/05/23 12:16:30;;;;;;;8.45;3.80;;;20.20;85.00;;;;;;4980355;28;20040;-83
2023/05/23 12:18:55;;;;;;;9.85;3.08;;;20.20;85.50;;;;;;4991797;28;20084;-77
2023/05/23 12:21:24;;;;;;;9.32;3.35;;;20.20;85.90;;;;;;4984725;28;20034;-76
2023/05/23 12:23:50;;;;;;;5.57;2.83;;;20.50;86.00;;;;;;5006837;28;20490;-77
2023/05/23 12:26:15;;;;;;;7.45;2.92;;;20.60;85.00;;;;;;4990870;28;20040;-77
2023/05/23 12:28:43;;;;;;;8.77;3.38;;;20.80;84.40;;;;;;5002322;28;20058;-77
2023/05/23 12:31:15;;;;;;;10.88;3.97;;;21.10;82.50;;;;;;4988486;28;20030;-78
2023/05/23 12:33:44;;;;;;;8.15;3.55;;;21.40;77.80;;;;;;5011099;28;20061;-78
2023/05/23 12:36:10;;;;;;;12.23;3.45;;;21.20;77.70;;;;;;5012181;28;20670;-79
2023/05/23 12:38:37;;;;;;;11.50;4.20;;;21.30;79.10;;;;;;4993370;28;20501;-77
2023/05/23 12:41:10;;;;;;;11.25;4.40;;;21.40;75.80;;;;;;5008397;28;20037;-78